createdAt,value
2019-03-06T00:02:06.679Z,13.43
2019-03-06T00:04:37.533Z,13.90
2019-03-06T00:07:08.407Z,15.48
2019-03-06T00:09:39.062Z,15.38
2019-03-06T00:12:09.916Z,14.30
2019-03-06T00:14:40.857Z,15.03
2019-03-06T00:17:11.507Z,15.10
2019-03-06T00:19:42.384Z,15.75
2019-03-06T00:22:13.150Z,15.70
2019-03-06T00:24:43.890Z,18.37
2019-03-06T00:27:14.423Z,17.80
2019-03-06T00:29:45.295Z,18.80
2019-03-06T00:32:16.050Z,18.50
2019-03-06T00:34:46.802Z,18.02
2019-03-06T00:37:17.661Z,19.00
2019-03-06T00:39:50.049Z,20.30
2019-03-06T00:42:20.684Z,20.05
2019-03-06T00:47:21.184Z,22.03
2019-03-06T00:49:51.944Z,23.95
2019-03-06T00:52:22.593Z,21.12
2019-03-06T00:54:53.457Z,21.23
2019-03-06T00:57:24.303Z,20.57
2019-03-06T00:59:54.961Z,21.73
2019-03-06T01:02:26.834Z,23.25
2019-03-06T01:04:57.693Z,22.25
2019-03-06T01:07:28.545Z,22.32
2019-03-06T01:09:59.403Z,23.00
2019-03-06T01:12:30.257Z,22.10
2019-03-06T01:15:01.120Z,22.85
2019-03-06T01:17:31.876Z,24.40
2019-03-06T01:20:02.525Z,23.77
2019-03-06T01:22:33.384Z,22.70
2019-03-06T01:25:05.260Z,21.97
2019-03-06T01:27:35.702Z,22.55
2019-03-06T01:30:09.529Z,23.73
2019-03-06T01:32:40.487Z,24.90
2019-03-06T01:35:18.504Z,23.18
2019-03-06T01:38:07.157Z,21.35
2019-03-06T01:40:39.546Z,21.48
2019-03-06T01:43:11.935Z,20.50
2019-03-06T01:45:42.589Z,21.77
2019-03-06T01:48:13.445Z,21.60
2019-03-06T01:50:44.299Z,22.20
2019-03-06T01:53:15.057Z,21.27
2019-03-06T01:55:45.703Z,23.10
2019-03-06T01:58:16.555Z,22.60
2019-03-06T02:00:47.315Z,22.30
2019-03-06T02:03:19.092Z,23.65
2019-03-06T02:05:49.847Z,23.87
2019-03-06T02:08:20.595Z,23.10
2019-03-06T02:10:51.654Z,21.25
2019-03-06T02:13:25.483Z,22.05
2019-03-06T02:15:56.131Z,22.32
2019-03-06T02:18:26.988Z,21.25
2019-03-06T02:20:57.943Z,20.88
2019-03-06T02:23:28.702Z,20.57
2019-03-06T02:25:59.554Z,21.68
2019-03-06T02:28:30.313Z,21.62
2019-03-06T02:31:01.067Z,21.20
2019-03-06T02:33:31.929Z,21.45
2019-03-06T02:36:02.790Z,21.30
2019-03-06T02:38:33.545Z,20.02
2019-03-06T02:41:04.177Z,20.32
2019-03-06T02:43:35.044Z,19.32
2019-03-06T02:46:05.805Z,18.52
2019-03-06T02:48:36.551Z,19.42
2019-03-06T02:51:09.106Z,19.77
2019-03-06T02:53:39.896Z,19.35
2019-03-06T02:56:10.643Z,18.90
2019-03-06T02:58:44.322Z,18.07
2019-03-06T03:01:32.707Z,18.50
2019-03-06T03:04:08.890Z,18.60
2019-03-06T03:06:44.147Z,17.62
2019-03-06T03:09:17.145Z,18.95
2019-03-06T03:11:47.700Z,16.67
2019-03-06T03:14:18.457Z,14.58
2019-03-06T03:16:49.102Z,17.70
2019-03-06T03:19:20.003Z,17.48
2019-03-06T03:21:50.814Z,18.05
2019-03-06T03:24:21.873Z,17.27
2019-03-06T03:26:52.736Z,18.15
2019-03-06T03:29:23.483Z,19.48
2019-03-06T03:34:24.073Z,17.50
2019-03-06T03:36:54.723Z,18.45
2019-03-06T03:39:25.590Z,19.25
2019-03-06T03:41:56.438Z,19.52
2019-03-06T03:44:27.184Z,18.98
2019-03-06T03:46:57.835Z,20.02
2019-03-06T03:49:28.713Z,20.55
2019-03-06T03:51:59.445Z,20.05
2019-03-06T03:54:30.198Z,19.57
2019-03-06T03:57:01.073Z,18.92
2019-03-06T03:59:32.243Z,18.70
2019-03-06T04:02:02.970Z,20.02
2019-03-06T04:04:34.042Z,19.65
2019-03-06T04:07:04.787Z,19.82
2019-03-06T04:09:35.552Z,20.62
2019-03-06T04:12:06.434Z,20.05
2019-03-06T04:14:37.253Z,19.62
2019-03-06T04:17:07.909Z,18.62
2019-03-06T04:19:38.760Z,19.87
2019-03-06T04:22:09.719Z,20.40
2019-03-06T04:24:40.478Z,20.85
2019-03-06T04:27:11.328Z,20.68
2019-03-06T04:29:42.183Z,19.65
2019-03-06T04:32:12.820Z,20.23
2019-03-06T04:37:13.307Z,19.93
2019-03-06T04:39:44.079Z,19.80
2019-03-06T04:42:14.914Z,20.77
2019-03-06T04:44:45.789Z,20.17
2019-03-06T04:47:16.238Z,19.50
2019-03-06T04:49:52.618Z,21.33
2019-03-06T04:52:19.278Z,20.80
2019-03-06T04:54:50.132Z,20.35
2019-03-06T04:57:20.886Z,21.12
2019-03-06T04:59:51.521Z,22.37
2019-03-06T05:02:22.377Z,19.25
2019-03-06T05:04:54.070Z,20.60
2019-03-06T05:07:25.028Z,20.57
2019-03-06T05:09:55.883Z,19.48
2019-03-06T05:12:26.739Z,21.17
2019-03-06T05:17:40.811Z,20.92
2019-03-06T05:20:11.563Z,21.60
2019-03-06T05:22:42.421Z,21.33
2019-03-06T05:25:13.192Z,20.88
2019-03-06T05:27:43.846Z,20.50
2019-03-06T05:30:16.521Z,21.85
2019-03-06T05:32:49.935Z,23.55
2019-03-06T05:35:41.468Z,20.82
2019-03-06T05:38:15.253Z,22.15
2019-03-06T05:40:45.620Z,21.35
2019-03-06T05:43:16.393Z,22.75
2019-03-06T05:45:47.348Z,23.52
2019-03-06T05:48:18.205Z,22.93
2019-03-06T05:50:48.957Z,22.20
2019-03-06T05:53:19.610Z,23.00
2019-03-06T05:55:50.464Z,21.07
2019-03-06T05:58:21.222Z,22.13
2019-03-06T06:00:51.862Z,21.80
2019-03-06T06:05:53.378Z,21.93
2019-03-06T06:08:24.012Z,21.50
2019-03-06T06:10:54.868Z,23.12
2019-03-06T06:13:25.621Z,23.32
2019-03-06T06:15:56.480Z,24.63
2019-03-06T06:18:27.279Z,24.90
2019-03-06T06:21:02.182Z,22.30
2019-03-06T06:23:49.520Z,22.80
2019-03-06T06:26:20.169Z,22.60
2019-03-06T06:28:50.907Z,23.87
2019-03-06T06:31:21.677Z,23.25
2019-03-06T06:33:52.314Z,22.10
2019-03-06T06:38:52.800Z,22.82
2019-03-06T06:43:53.282Z,23.07
2019-03-06T06:46:24.054Z,20.23
2019-03-06T06:48:54.687Z,22.85
2019-03-06T06:51:43.971Z,22.42
2019-03-06T06:54:20.695Z,22.82
2019-03-06T06:57:00.412Z,20.85
2019-03-06T06:59:40.150Z,21.20
2019-03-06T07:02:45.368Z,22.07
2019-03-06T07:05:32.812Z,20.48
2019-03-06T07:08:21.671Z,21.97
2019-03-06T07:10:56.700Z,20.57
2019-03-06T07:13:32.174Z,20.10
2019-03-06T07:16:20.930Z,19.98
2019-03-06T07:19:09.481Z,20.95
2019-03-06T07:21:50.768Z,19.70
2019-03-06T07:24:35.027Z,18.82
2019-03-06T07:27:10.380Z,19.25
2019-03-06T07:29:42.750Z,18.65
2019-03-06T07:32:24.141Z,19.73
2019-03-06T07:35:49.310Z,19.95
2019-03-06T07:38:20.487Z,16.87
2019-03-06T07:40:55.639Z,18.35
2019-03-06T07:43:37.130Z,17.00
2019-03-06T07:46:25.684Z,17.15
2019-03-06T07:49:13.411Z,16.48
2019-03-06T07:51:54.478Z,15.30
2019-03-06T07:54:29.546Z,15.53
2019-03-06T07:57:13.799Z,12.80
2019-03-06T07:59:44.860Z,14.35
2019-03-06T08:02:42.111Z,14.03
2019-03-06T08:05:12.546Z,14.15
2019-03-06T08:07:43.187Z,14.95
2019-03-06T08:10:17.517Z,14.70
2019-03-06T08:12:52.892Z,12.05
2019-03-06T08:15:40.319Z,12.78
2019-03-06T08:18:21.690Z,12.55
2019-03-06T08:21:02.981Z,11.93
2019-03-06T08:23:38.354Z,11.93
2019-03-06T08:26:09.093Z,10.28
2019-03-06T08:28:39.744Z,10.90
2019-03-06T08:31:15.319Z,9.88
2019-03-06T08:33:45.647Z,11.53
2019-03-06T08:36:16.418Z,12.75
2019-03-06T08:38:47.051Z,10.38
2019-03-06T08:43:47.554Z,12.37
2019-03-06T08:46:19.841Z,14.63
2019-03-06T08:48:57.942Z,11.48
2019-03-06T08:51:33.501Z,9.98
2019-03-06T08:54:17.876Z,9.10
2019-03-06T08:57:05.181Z,10.38
2019-03-06T09:00:04.183Z,11.08
2019-03-06T09:02:41.463Z,9.98
2019-03-06T09:05:31.142Z,10.10
2019-03-06T09:08:03.550Z,11.05
2019-03-06T09:10:52.098Z,10.18
2019-03-06T09:13:24.282Z,9.70
2019-03-06T09:15:59.314Z,10.48
2019-03-06T09:18:31.719Z,10.05
2019-03-06T09:21:09.945Z,12.07
2019-03-06T09:23:58.801Z,9.60
2019-03-06T09:26:37.307Z,11.25
2019-03-06T09:29:09.613Z,13.32
2019-03-06T09:31:44.867Z,12.18
2019-03-06T09:34:28.229Z,12.25
2019-03-06T09:37:03.151Z,10.95
2019-03-06T09:39:51.594Z,11.78
2019-03-06T09:42:23.883Z,13.40
2019-03-06T09:44:56.160Z,9.93
2019-03-06T09:47:28.459Z,9.75
2019-03-06T09:50:00.848Z,6.47
2019-03-06T09:52:36.003Z,7.10
2019-03-06T09:55:10.753Z,12.73
2019-03-06T09:57:45.470Z,10.25
2019-03-06T10:00:17.874Z,7.05
2019-03-06T10:02:56.077Z,6.72
2019-03-06T10:05:31.025Z,6.05
2019-03-06T10:08:15.659Z,10.30
2019-03-06T10:10:57.568Z,5.17
2019-03-06T10:13:34.176Z,5.87
2019-03-06T10:16:24.789Z,4.95
2019-03-06T10:19:00.948Z,6.55
2019-03-06T10:21:31.715Z,7.00
2019-03-06T10:24:02.349Z,6.12
2019-03-06T10:26:33.016Z,8.53
2019-03-06T10:29:03.657Z,6.33
2019-03-06T10:31:34.530Z,5.67
2019-03-06T10:34:05.176Z,4.95
2019-03-06T10:36:36.250Z,5.90
2019-03-06T10:39:07.103Z,6.85
2019-03-06T10:41:37.935Z,5.12
2019-03-06T10:44:08.604Z,6.10
2019-03-06T10:46:39.443Z,5.40
2019-03-06T10:49:10.211Z,5.95
2019-03-06T10:51:41.074Z,6.05
2019-03-06T10:54:11.778Z,6.30
2019-03-06T10:56:43.397Z,5.65
2019-03-06T10:59:14.258Z,5.75
2019-03-06T11:01:45.109Z,5.45
2019-03-06T11:04:17.400Z,6.53
2019-03-06T11:06:48.154Z,6.45
2019-03-06T11:09:18.805Z,6.75
2019-03-06T11:11:50.684Z,6.20
2019-03-06T11:14:21.640Z,5.67
2019-03-06T11:16:52.485Z,5.62
2019-03-06T11:19:23.454Z,5.87
2019-03-06T11:21:54.295Z,6.25
2019-03-06T11:24:25.066Z,5.97
2019-03-06T11:26:55.851Z,4.47
2019-03-06T11:29:27.595Z,5.12
2019-03-06T11:31:58.249Z,5.60
2019-03-06T11:34:29.103Z,5.10
2019-03-06T11:36:59.885Z,4.15
2019-03-06T11:39:30.613Z,4.03
2019-03-06T11:42:01.449Z,4.80
2019-03-06T11:44:32.100Z,3.90
2019-03-06T11:47:02.874Z,5.25
2019-03-06T11:49:33.508Z,5.65
2019-03-06T11:52:04.365Z,5.75
2019-03-06T11:54:35.136Z,5.50
2019-03-06T11:57:05.891Z,4.17
2019-03-06T11:59:36.421Z,3.17
2019-03-06T12:02:07.296Z,2.98
2019-03-06T12:04:38.251Z,3.47
2019-03-06T12:07:09.010Z,3.92
2019-03-06T12:09:39.760Z,3.62
2019-03-06T12:12:11.555Z,3.50
2019-03-06T12:14:41.984Z,3.77
2019-03-06T12:17:12.842Z,5.20
2019-03-06T12:19:43.477Z,8.03
2019-03-06T12:22:14.131Z,13.70
2019-03-06T12:24:44.999Z,6.65
2019-03-06T12:27:15.758Z,3.20
2019-03-06T12:29:46.508Z,3.00
2019-03-06T12:32:17.161Z,7.92
2019-03-06T12:34:48.018Z,11.83
2019-03-06T12:37:18.770Z,5.47
2019-03-06T12:39:49.522Z,4.78
2019-03-06T12:42:20.377Z,4.50
2019-03-06T12:44:51.279Z,8.33
2019-03-06T12:47:22.093Z,3.00
2019-03-06T12:49:52.946Z,3.52
2019-03-06T12:52:23.785Z,3.98
2019-03-06T12:54:54.455Z,5.10
2019-03-06T12:57:25.111Z,3.22
2019-03-06T12:59:55.963Z,3.65
2019-03-06T13:02:26.716Z,5.25
2019-03-06T13:04:57.350Z,4.33
2019-03-06T13:07:28.224Z,5.78
2019-03-06T13:09:58.959Z,4.55
2019-03-06T13:12:29.939Z,5.03
2019-03-06T13:15:00.325Z,5.75
2019-03-06T13:17:31.240Z,5.22
2019-03-06T13:20:02.098Z,5.70
2019-03-06T13:22:32.951Z,4.87
2019-03-06T13:25:03.813Z,7.12
2019-03-06T13:27:34.463Z,7.60
2019-03-06T13:30:11.247Z,4.55
2019-03-06T13:32:43.211Z,3.83
2019-03-06T13:35:13.865Z,4.28
2019-03-06T13:37:44.536Z,11.12
2019-03-06T13:40:18.567Z,8.50
2019-03-06T13:42:47.777Z,3.55
2019-03-06T13:45:18.620Z,3.85
2019-03-06T13:47:51.058Z,4.42
2019-03-06T13:50:21.781Z,4.60
2019-03-06T13:52:52.229Z,6.47
2019-03-06T13:55:22.987Z,6.72
2019-03-06T13:57:53.842Z,4.70
2019-03-06T14:00:25.001Z,6.70
2019-03-06T14:02:55.448Z,6.08
2019-03-06T14:05:26.081Z,4.10
2019-03-06T14:07:57.070Z,5.42
2019-03-06T14:10:27.801Z,5.50
2019-03-06T14:12:59.794Z,5.67
2019-03-06T14:15:30.241Z,7.20
2019-03-06T14:18:01.094Z,5.60
2019-03-06T14:20:31.953Z,5.30
2019-03-06T14:23:02.705Z,5.92
2019-03-06T14:25:33.443Z,5.08
2019-03-06T14:28:04.317Z,4.87
2019-03-06T14:30:39.411Z,4.97
2019-03-06T14:33:09.917Z,5.10
2019-03-06T14:35:40.670Z,4.70
2019-03-06T14:38:11.305Z,4.53
2019-03-06T14:40:42.176Z,4.70
2019-03-06T14:43:12.826Z,4.95
2019-03-06T14:45:43.582Z,4.25
2019-03-06T14:48:14.234Z,5.58
2019-03-06T14:50:45.297Z,4.37
2019-03-06T14:53:16.049Z,5.33
2019-03-06T14:55:46.688Z,4.72
2019-03-06T14:58:17.557Z,4.00
2019-03-06T15:00:48.191Z,5.60
2019-03-06T15:03:19.253Z,5.10
2019-03-06T15:05:50.007Z,4.92
2019-03-06T15:08:20.879Z,4.75
2019-03-06T15:10:51.615Z,5.78
2019-03-06T15:15:52.220Z,5.35
2019-03-06T15:18:22.975Z,5.40
2019-03-06T15:20:53.827Z,5.95
2019-03-06T15:23:24.585Z,6.17
2019-03-06T15:25:56.473Z,6.28
2019-03-06T15:28:27.221Z,6.37
2019-03-06T15:33:27.480Z,6.83
2019-03-06T15:35:58.251Z,7.35
2019-03-06T15:38:28.904Z,8.13
2019-03-06T15:40:59.642Z,7.90
2019-03-06T15:43:30.513Z,7.53
2019-03-06T15:46:01.251Z,7.42
2019-03-06T15:48:32.004Z,8.35
2019-03-06T15:51:02.866Z,8.65
2019-03-06T15:53:33.839Z,9.95
2019-03-06T15:56:04.491Z,11.80
2019-03-06T15:58:35.343Z,12.70
2019-03-06T16:01:05.774Z,12.00
2019-03-06T16:03:36.543Z,15.20
2019-03-06T16:06:07.810Z,15.48
2019-03-06T16:08:38.137Z,17.20
2019-03-06T16:11:08.908Z,19.48
2019-03-06T16:13:39.871Z,18.50
2019-03-06T16:16:10.928Z,17.42
2019-03-06T16:18:41.768Z,20.02
2019-03-06T16:21:12.439Z,19.48
2019-03-06T16:23:43.298Z,18.62
2019-03-06T16:26:14.135Z,19.00
2019-03-06T16:28:44.903Z,16.85
2019-03-06T16:31:15.860Z,16.20
2019-03-06T16:33:46.717Z,16.25
2019-03-06T16:36:17.474Z,15.93
2019-03-06T16:38:48.121Z,15.15
2019-03-06T16:41:18.979Z,14.78
2019-03-06T16:43:49.612Z,15.05
2019-03-06T16:46:20.266Z,14.58
2019-03-06T16:51:20.853Z,15.40
2019-03-06T16:56:21.456Z,14.83
2019-03-06T16:58:52.212Z,15.23
2019-03-06T17:01:23.067Z,15.78
2019-03-06T17:03:53.806Z,16.32
2019-03-06T17:06:24.558Z,14.55
2019-03-06T17:08:55.227Z,16.20
2019-03-06T17:11:26.287Z,15.93
2019-03-06T17:13:57.960Z,20.40
2019-03-06T17:16:30.742Z,21.80
2019-03-06T17:19:01.722Z,19.42
2019-03-06T17:21:32.575Z,20.08
2019-03-06T17:24:03.330Z,24.20
2019-03-06T17:26:33.981Z,23.00
2019-03-06T17:29:10.322Z,23.35
2019-03-06T17:31:41.355Z,25.52
2019-03-06T17:34:11.767Z,25.27
2019-03-06T17:36:42.605Z,26.45
2019-03-06T17:39:13.777Z,26.05
2019-03-06T17:41:44.436Z,27.42
2019-03-06T17:44:15.294Z,26.95
2019-03-06T17:46:46.147Z,28.60
2019-03-06T17:49:16.800Z,30.12
2019-03-06T17:51:47.656Z,28.10
2019-03-06T17:54:18.102Z,30.52
2019-03-06T17:56:48.800Z,30.43
2019-03-06T17:59:19.614Z,28.40
2019-03-06T18:01:51.793Z,28.92
2019-03-06T18:04:22.330Z,31.27
2019-03-06T18:06:52.897Z,30.52
2019-03-06T18:09:23.630Z,30.12
2019-03-06T18:14:25.377Z,31.15
2019-03-06T18:16:56.199Z,28.90
2019-03-06T18:19:27.057Z,29.57
2019-03-06T18:21:57.931Z,31.62
2019-03-06T18:24:28.686Z,32.48
2019-03-06T18:26:59.522Z,31.48
2019-03-06T18:29:30.397Z,33.05
2019-03-06T18:32:01.207Z,30.43
2019-03-06T18:34:33.544Z,32.65
2019-03-06T18:37:04.387Z,33.92
2019-03-06T18:39:35.135Z,35.17
2019-03-06T18:42:05.904Z,40.95
2019-03-06T18:44:36.556Z,45.75
2019-03-06T18:47:07.415Z,50.43
2019-03-06T18:49:38.049Z,48.73
2019-03-06T18:52:08.822Z,50.55
2019-03-06T18:54:39.471Z,53.52
2019-03-06T18:57:10.323Z,55.15
2019-03-06T18:59:41.080Z,78.30
2019-03-06T19:02:11.816Z,79.70
2019-03-06T19:04:42.485Z,80.17
2019-03-06T19:07:13.546Z,74.03
2019-03-06T19:09:44.303Z,78.83
2019-03-06T19:12:14.937Z,84.87
2019-03-06T19:14:46.731Z,97.25
2019-03-06T19:17:17.587Z,89.62
2019-03-06T19:19:48.853Z,103.22
2019-03-06T19:22:19.687Z,94.32
2019-03-06T19:24:50.563Z,79.65
2019-03-06T19:27:21.300Z,82.97
2019-03-06T19:29:51.970Z,97.53
2019-03-06T19:32:23.234Z,74.67
2019-03-06T19:34:53.867Z,46.58
2019-03-06T19:39:54.371Z,56.83
2019-03-06T19:42:25.005Z,67.53
2019-03-06T19:47:25.899Z,42.73
2019-03-06T19:49:58.470Z,69.87
2019-03-06T19:52:28.958Z,49.65
2019-03-06T19:54:59.794Z,46.55
2019-03-06T19:57:33.634Z,48.70
2019-03-06T20:00:07.233Z,43.60
2019-03-06T20:02:38.007Z,41.18
2019-03-06T20:05:08.844Z,36.20
2019-03-06T20:07:42.376Z,34.08
2019-03-06T20:10:13.033Z,31.02
2019-03-06T20:12:43.782Z,28.05
2019-03-06T20:15:17.592Z,25.12
2019-03-06T20:17:48.240Z,23.95
2019-03-06T20:20:19.733Z,21.87
2019-03-06T20:22:50.889Z,21.15
2019-03-06T20:25:23.484Z,21.23
2019-03-06T20:27:54.322Z,23.47
2019-03-06T20:30:27.223Z,23.22
2019-03-06T20:32:58.182Z,22.25
2019-03-06T20:35:28.853Z,21.45
2019-03-06T20:38:00.099Z,22.73
2019-03-06T20:40:32.403Z,21.25
2019-03-06T20:43:03.346Z,20.85
2019-03-06T20:45:34.512Z,20.25
2019-03-06T20:48:05.486Z,20.60
2019-03-06T20:50:36.323Z,19.70
2019-03-06T20:53:07.284Z,19.92
2019-03-06T20:55:38.260Z,20.77
2019-03-06T20:58:09.216Z,20.62
2019-03-06T21:00:40.057Z,19.98
2019-03-06T21:03:11.015Z,19.67
2019-03-06T21:05:41.989Z,20.43
2019-03-06T21:08:13.254Z,21.25
2019-03-06T21:10:44.211Z,22.17
2019-03-06T21:13:16.596Z,23.38
2019-03-06T21:15:48.975Z,22.32
2019-03-06T21:18:19.940Z,23.10
2019-03-06T21:20:51.115Z,23.55
2019-03-06T21:23:22.481Z,23.92
2019-03-06T21:25:53.319Z,21.93
2019-03-06T21:28:24.094Z,24.20
2019-03-06T21:30:54.725Z,21.82
2019-03-06T21:33:25.598Z,20.82
2019-03-06T21:35:59.199Z,21.33
2019-03-06T21:38:29.970Z,21.23
2019-03-06T21:41:00.623Z,21.48
2019-03-06T21:43:31.461Z,19.90
2019-03-06T21:48:32.064Z,19.30
2019-03-06T21:51:02.920Z,20.75
2019-03-06T21:53:33.673Z,18.30
2019-03-06T21:56:04.329Z,17.92
2019-03-06T21:58:35.302Z,18.87
2019-03-06T22:01:06.141Z,17.27
2019-03-06T22:03:37.002Z,18.05
2019-03-06T22:06:07.856Z,17.17
2019-03-06T22:08:38.619Z,16.85
2019-03-06T22:11:09.257Z,16.52
2019-03-06T22:13:39.895Z,17.20
2019-03-06T22:16:11.996Z,17.57
2019-03-06T22:18:42.848Z,17.73
2019-03-06T22:21:13.707Z,17.50
2019-03-06T22:23:45.600Z,17.77
2019-03-06T22:26:16.133Z,18.07
2019-03-06T22:28:47.195Z,18.55
2019-03-06T22:31:17.951Z,18.17
2019-03-06T22:33:48.702Z,18.67
2019-03-06T22:36:19.338Z,17.82
2019-03-06T22:38:50.212Z,18.25
2019-03-06T22:41:20.845Z,18.87
2019-03-06T22:43:51.615Z,20.20
2019-03-06T22:46:22.266Z,21.77
2019-03-06T22:48:53.126Z,22.60
2019-03-06T22:51:25.481Z,23.40
2019-03-06T22:53:56.063Z,24.72
2019-03-06T22:56:26.714Z,25.27
2019-03-06T22:58:57.552Z,26.45
2019-03-06T23:01:28.510Z,27.00
2019-03-06T23:03:59.281Z,25.75
2019-03-06T23:06:30.140Z,25.37
2019-03-06T23:09:00.892Z,26.82
2019-03-06T23:11:31.525Z,25.27
2019-03-06T23:16:33.256Z,27.52
2019-03-06T23:19:04.009Z,34.50
2019-03-06T23:21:34.765Z,31.35
2019-03-06T23:24:05.620Z,32.67
2019-03-06T23:29:07.230Z,31.52
2019-03-06T23:31:38.069Z,33.28
2019-03-06T23:34:08.841Z,29.87
2019-03-06T23:36:39.478Z,25.60
2019-03-06T23:41:41.715Z,24.27
2019-03-06T23:44:12.368Z,24.70
2019-03-06T23:46:43.103Z,23.80
2019-03-06T23:49:13.978Z,22.95
2019-03-06T23:51:46.264Z,21.73
2019-03-06T23:54:16.899Z,24.20
2019-03-06T23:56:48.472Z,24.95
